createdAt,value
2022-10-25T00:02:14.950Z,17.81
2022-10-25T00:04:42.235Z,17.88
2022-10-25T00:07:09.369Z,17.90
2022-10-25T00:09:36.505Z,17.71
2022-10-25T00:12:04.121Z,17.63
2022-10-25T00:14:31.502Z,17.62
2022-10-25T00:16:58.755Z,17.84
2022-10-25T00:19:26.869Z,17.93
2022-10-25T00:21:53.989Z,17.86
2022-10-25T00:24:21.104Z,17.70
2022-10-25T00:26:48.198Z,17.60
2022-10-25T00:29:16.484Z,17.57
2022-10-25T00:31:43.630Z,17.62
2022-10-25T00:34:10.781Z,17.70
2022-10-25T00:36:37.897Z,17.71
2022-10-25T00:39:05.033Z,17.71
2022-10-25T00:41:33.578Z,17.68
2022-10-25T00:44:19.420Z,17.70
2022-10-25T00:46:46.561Z,17.68
2022-10-25T00:49:19.286Z,17.68
2022-10-25T00:51:50.798Z,17.67
2022-10-25T00:56:50.602Z,17.66
2022-10-25T00:59:22.397Z,17.64
2022-10-25T01:01:49.931Z,17.60
2022-10-25T01:04:18.425Z,17.57
2022-10-25T01:06:46.585Z,17.65
2022-10-25T01:09:16.081Z,17.62
2022-10-25T01:11:43.219Z,17.57
2022-10-25T01:14:12.749Z,17.50
2022-10-25T01:16:39.809Z,17.37
2022-10-25T01:19:17.497Z,17.38
2022-10-25T01:21:47.437Z,17.40
2022-10-25T01:24:33.050Z,17.40
2022-10-25T01:27:12.225Z,17.31
2022-10-25T01:29:45.273Z,17.19
2022-10-25T01:32:18.808Z,17.15
2022-10-25T01:34:52.964Z,17.22
2022-10-25T01:37:27.440Z,17.14
2022-10-25T01:40:01.381Z,17.11
2022-10-25T01:42:33.027Z,17.03
2022-10-25T01:45:15.513Z,16.99
2022-10-25T01:47:53.898Z,16.98
2022-10-25T01:50:23.769Z,17.06
2022-10-25T01:52:50.909Z,17.13
2022-10-25T01:55:18.946Z,17.17
2022-10-25T01:57:52.237Z,17.26
2022-10-25T02:00:23.667Z,17.23
2022-10-25T02:02:56.881Z,17.09
2022-10-25T02:05:30.428Z,17.15
2022-10-25T02:08:04.874Z,17.22
2022-10-25T02:10:43.988Z,17.30
2022-10-25T02:13:14.211Z,17.25
2022-10-25T02:15:43.745Z,17.24
2022-10-25T02:18:14.465Z,17.25
2022-10-25T02:20:45.872Z,17.15
2022-10-25T02:23:14.855Z,16.94
2022-10-25T02:25:42.612Z,16.96
2022-10-25T02:28:11.505Z,17.03
2022-10-25T02:30:40.213Z,17.14
2022-10-25T02:33:07.290Z,17.17
2022-10-25T02:35:34.533Z,17.27
2022-10-25T02:38:01.701Z,17.22
2022-10-25T02:40:28.854Z,17.14
2022-10-25T02:42:56.101Z,17.02
2022-10-25T02:45:23.161Z,17.07
2022-10-25T02:47:50.663Z,17.13
2022-10-25T02:50:17.757Z,17.21
2022-10-25T02:52:45.275Z,17.19
2022-10-25T02:55:12.667Z,17.21
2022-10-25T02:57:39.851Z,17.15
2022-10-25T03:00:07.864Z,17.22
2022-10-25T03:02:35.187Z,17.26
2022-10-25T03:05:02.301Z,17.21
2022-10-25T03:07:29.436Z,17.02
2022-10-25T03:09:56.548Z,17.01
2022-10-25T03:12:23.702Z,17.03
2022-10-25T03:14:50.802Z,17.12
2022-10-25T03:17:17.961Z,17.19
2022-10-25T03:19:45.061Z,17.13
2022-10-25T03:22:12.122Z,17.02
2022-10-25T03:24:39.221Z,17.08
2022-10-25T03:27:06.321Z,17.06
2022-10-25T03:29:33.418Z,16.99
2022-10-25T03:32:00.574Z,16.97
2022-10-25T03:34:27.743Z,17.00
2022-10-25T03:36:54.936Z,16.98
2022-10-25T03:39:22.002Z,16.96
2022-10-25T03:41:49.199Z,16.92
2022-10-25T03:44:16.539Z,16.80
2022-10-25T03:46:43.654Z,16.85
2022-10-25T03:49:10.835Z,16.92
2022-10-25T03:51:37.949Z,17.03
2022-10-25T03:54:05.113Z,16.77
2022-10-25T03:56:32.188Z,16.65
2022-10-25T03:58:59.308Z,16.58
2022-10-25T04:01:26.542Z,16.42
2022-10-25T04:03:53.726Z,16.49
2022-10-25T04:06:20.865Z,16.58
2022-10-25T04:08:47.953Z,16.67
2022-10-25T04:11:15.083Z,16.71
2022-10-25T04:13:42.102Z,16.66
2022-10-25T04:16:09.854Z,16.55
2022-10-25T04:18:36.975Z,16.49
2022-10-25T04:21:04.104Z,16.57
2022-10-25T04:23:31.441Z,16.71
2022-10-25T04:25:58.598Z,16.69
2022-10-25T04:28:26.172Z,16.63
2022-10-25T04:30:53.308Z,16.65
2022-10-25T04:33:20.379Z,16.62
2022-10-25T04:35:56.977Z,16.74
2022-10-25T04:38:24.141Z,16.83
2022-10-25T04:40:55.138Z,16.64
2022-10-25T04:43:22.503Z,16.41
2022-10-25T04:45:49.658Z,16.47
2022-10-25T04:48:17.482Z,16.56
2022-10-25T04:50:45.114Z,16.54
2022-10-25T04:53:12.238Z,16.44
2022-10-25T04:55:39.418Z,16.41
2022-10-25T04:58:06.533Z,16.44
2022-10-25T05:00:33.730Z,16.54
2022-10-25T05:03:00.964Z,16.62
2022-10-25T05:05:28.166Z,16.68
2022-10-25T05:07:55.291Z,16.69
2022-10-25T05:10:22.473Z,16.66
2022-10-25T05:12:49.990Z,16.64
2022-10-25T05:15:17.324Z,16.69
2022-10-25T05:17:44.382Z,16.67
2022-10-25T05:20:11.528Z,16.72
2022-10-25T05:22:38.696Z,16.68
2022-10-25T05:25:06.099Z,16.72
2022-10-25T05:27:36.588Z,16.66
2022-10-25T05:30:03.899Z,16.67
2022-10-25T05:32:31.033Z,16.68
2022-10-25T05:34:58.165Z,16.73
2022-10-25T05:37:25.312Z,16.82
2022-10-25T05:39:52.440Z,16.79
2022-10-25T05:42:19.659Z,16.92
2022-10-25T05:44:46.704Z,16.74
2022-10-25T05:47:13.859Z,16.63
2022-10-25T05:49:42.377Z,16.72
2022-10-25T05:52:09.521Z,16.71
2022-10-25T05:54:36.690Z,16.66
2022-10-25T05:57:03.835Z,16.67
2022-10-25T05:59:31.001Z,16.72
2022-10-25T06:01:58.270Z,16.83
2022-10-25T06:04:25.621Z,16.98
2022-10-25T06:06:53.172Z,17.03
2022-10-25T06:09:20.348Z,17.10
2022-10-25T06:11:47.468Z,17.08
2022-10-25T06:14:14.604Z,17.00
2022-10-25T06:16:41.735Z,16.97
2022-10-25T06:19:08.893Z,16.93
2022-10-25T06:21:36.263Z,16.97
2022-10-25T06:24:04.265Z,17.02
2022-10-25T06:26:31.474Z,17.03
2022-10-25T06:28:59.803Z,17.02
2022-10-25T06:31:27.389Z,17.03
2022-10-25T06:33:54.558Z,17.08
2022-10-25T06:36:23.762Z,17.06
2022-10-25T06:38:51.154Z,17.12
2022-10-25T06:41:20.194Z,17.08
2022-10-25T06:43:47.467Z,17.22
2022-10-25T06:46:25.301Z,17.36
2022-10-25T06:48:53.460Z,17.39
2022-10-25T06:51:21.668Z,17.46
2022-10-25T06:53:53.459Z,17.51
2022-10-25T06:56:20.673Z,17.43
2022-10-25T06:58:47.711Z,17.37
2022-10-25T07:01:16.102Z,17.36
2022-10-25T07:03:43.533Z,17.46
2022-10-25T07:06:12.093Z,17.45
2022-10-25T07:08:40.353Z,17.40
2022-10-25T07:11:09.088Z,17.46
2022-10-25T07:13:36.231Z,17.39
2022-10-25T07:16:04.050Z,17.35
2022-10-25T07:18:31.704Z,17.42
2022-10-25T07:21:02.646Z,17.51
2022-10-25T07:23:30.198Z,17.47
2022-10-25T07:25:57.953Z,17.53
2022-10-25T07:28:25.589Z,17.62
2022-10-25T07:30:53.225Z,17.66
2022-10-25T07:33:20.510Z,17.67
2022-10-25T07:35:59.028Z,17.75
2022-10-25T07:38:33.518Z,17.81
2022-10-25T07:41:00.687Z,17.83
2022-10-25T07:43:28.429Z,17.88
2022-10-25T07:45:55.986Z,17.88
2022-10-25T07:48:23.300Z,17.89
2022-10-25T07:50:50.691Z,17.88
2022-10-25T07:53:18.032Z,17.92
2022-10-25T07:56:11.403Z,17.95
2022-10-25T07:58:38.627Z,17.91
2022-10-25T08:01:07.036Z,17.94
2022-10-25T08:03:34.558Z,17.94
2022-10-25T08:06:02.165Z,17.95
2022-10-25T08:08:30.062Z,17.96
2022-10-25T08:10:57.758Z,17.99
2022-10-25T08:13:25.056Z,18.05
2022-10-25T08:15:53.026Z,17.98
2022-10-25T08:18:20.753Z,17.96
2022-10-25T08:21:03.980Z,17.97
2022-10-25T08:23:32.161Z,17.95
2022-10-25T08:25:59.811Z,18.02
2022-10-25T08:28:27.176Z,18.09
2022-10-25T08:30:55.654Z,18.09
2022-10-25T08:33:23.560Z,18.18
2022-10-25T08:35:52.709Z,18.28
2022-10-25T08:38:19.906Z,18.35
2022-10-25T08:40:47.249Z,18.43
2022-10-25T08:43:33.244Z,18.46
2022-10-25T08:46:03.111Z,18.62
2022-10-25T08:48:36.409Z,18.63
2022-10-25T08:51:19.134Z,18.58
2022-10-25T08:53:48.642Z,18.65
2022-10-25T08:56:18.770Z,18.68
2022-10-25T08:58:49.986Z,18.61
2022-10-25T09:01:21.048Z,18.61
2022-10-25T09:03:49.032Z,18.66
2022-10-25T09:06:25.080Z,18.72
2022-10-25T09:09:05.085Z,18.77
2022-10-25T09:11:50.472Z,18.88
2022-10-25T09:14:35.054Z,18.95
2022-10-25T09:17:04.160Z,18.94
2022-10-25T09:19:31.239Z,19.02
2022-10-25T09:22:02.581Z,19.12
2022-10-25T09:24:34.187Z,19.05
2022-10-25T09:27:04.364Z,19.15
2022-10-25T09:29:35.575Z,19.21
2022-10-25T09:32:05.625Z,19.14
2022-10-25T09:34:33.238Z,19.07
2022-10-25T09:37:07.458Z,19.28
2022-10-25T09:39:40.489Z,19.33
2022-10-25T09:42:39.932Z,19.23
2022-10-25T09:45:14.621Z,19.35
2022-10-25T09:47:50.893Z,19.35
2022-10-25T09:50:29.640Z,19.29
2022-10-25T09:53:19.067Z,19.20
2022-10-25T09:55:48.935Z,19.26
2022-10-25T09:58:24.292Z,19.34
2022-10-25T10:00:52.854Z,19.40
2022-10-25T10:03:20.535Z,19.34
2022-10-25T10:05:50.490Z,19.42
2022-10-25T10:08:18.027Z,19.41
2022-10-25T10:10:46.873Z,19.41
2022-10-25T10:13:14.074Z,19.40
2022-10-25T10:15:53.405Z,19.26
2022-10-25T10:18:25.699Z,19.33
2022-10-25T10:21:05.036Z,19.37
2022-10-25T10:23:44.145Z,19.50
2022-10-25T10:26:19.983Z,19.58
2022-10-25T10:28:48.468Z,19.67
2022-10-25T10:31:16.573Z,19.71
2022-10-25T10:33:50.640Z,19.65
2022-10-25T10:36:20.254Z,19.67
2022-10-25T10:38:47.389Z,19.56
2022-10-25T10:41:20.197Z,19.36
2022-10-25T10:43:47.418Z,19.21
2022-10-25T10:46:15.930Z,19.34
2022-10-25T10:48:52.441Z,19.41
2022-10-25T10:54:23.261Z,19.63
2022-10-25T10:56:54.638Z,19.75
2022-10-25T10:59:26.657Z,19.78
2022-10-25T11:01:54.008Z,19.65
2022-10-25T11:04:24.066Z,19.77
2022-10-25T11:06:52.571Z,19.85
2022-10-25T11:09:23.566Z,19.91
2022-10-25T11:12:10.985Z,19.92
2022-10-25T11:14:38.434Z,20.00
2022-10-25T11:17:05.510Z,20.06
2022-10-25T11:19:32.575Z,20.01
2022-10-25T11:22:18.558Z,20.02
2022-10-25T11:24:46.263Z,20.11
2022-10-25T11:27:19.240Z,20.14
2022-10-25T11:29:52.385Z,20.19
2022-10-25T11:32:34.588Z,20.24
2022-10-25T11:35:15.586Z,20.17
2022-10-25T11:37:47.166Z,20.22
2022-10-25T11:40:29.608Z,20.28
2022-10-25T11:43:06.625Z,20.34
2022-10-25T11:45:48.470Z,20.37
2022-10-25T11:48:33.975Z,20.41
2022-10-25T11:51:19.383Z,20.47
2022-10-25T11:54:04.876Z,20.52
2022-10-25T11:56:50.585Z,20.47
2022-10-25T11:59:23.425Z,20.49
2022-10-25T12:01:50.598Z,20.43
2022-10-25T12:04:38.029Z,20.47
2022-10-25T12:07:05.261Z,20.50
2022-10-25T12:09:32.458Z,20.54
2022-10-25T12:12:05.277Z,20.57
2022-10-25T12:14:34.886Z,20.52
2022-10-25T12:17:03.326Z,20.54
2022-10-25T12:19:36.045Z,20.62
2022-10-25T12:22:08.124Z,20.66
2022-10-25T12:24:48.024Z,20.66
2022-10-25T12:27:17.716Z,20.69
2022-10-25T12:29:48.257Z,20.71
2022-10-25T12:32:19.154Z,20.73
2022-10-25T12:34:53.289Z,20.72
2022-10-25T12:37:30.445Z,20.75
2022-10-25T12:39:57.734Z,20.78
2022-10-25T12:42:28.275Z,20.79
2022-10-25T12:45:10.461Z,20.71
2022-10-25T12:47:37.577Z,20.68
2022-10-25T12:50:12.690Z,20.74
2022-10-25T12:52:58.641Z,20.80
2022-10-25T12:56:01.599Z,20.85
2022-10-25T12:58:43.791Z,20.89
2022-10-25T13:01:11.035Z,20.94
2022-10-25T13:03:57.066Z,20.94
2022-10-25T13:06:30.313Z,20.90
2022-10-25T13:09:29.888Z,20.93
2022-10-25T13:11:59.428Z,20.97
2022-10-25T13:14:26.977Z,21.01
2022-10-25T13:17:14.048Z,21.06
2022-10-25T13:19:56.695Z,21.08
2022-10-25T13:22:39.261Z,21.03
2022-10-25T13:25:12.778Z,21.02
2022-10-25T13:27:40.891Z,21.03
2022-10-25T13:30:08.109Z,21.06
2022-10-25T13:32:36.854Z,21.08
2022-10-25T13:35:25.102Z,21.10
2022-10-25T13:38:08.214Z,21.11
2022-10-25T13:40:37.720Z,21.05
2022-10-25T13:43:18.764Z,21.02
2022-10-25T13:45:47.570Z,21.03
2022-10-25T13:48:14.663Z,21.05
2022-10-25T13:50:43.947Z,21.05
2022-10-25T13:53:17.278Z,21.03
2022-10-25T13:55:46.129Z,21.01
2022-10-25T13:58:31.854Z,21.05
2022-10-25T14:01:14.785Z,21.04
2022-10-25T14:03:51.403Z,21.01
2022-10-25T14:06:23.964Z,21.00
2022-10-25T14:09:12.874Z,21.02
2022-10-25T14:11:40.301Z,21.01
2022-10-25T14:14:16.264Z,21.00
2022-10-25T14:16:52.522Z,21.01
2022-10-25T14:19:25.861Z,20.99
2022-10-25T14:21:53.768Z,20.95
2022-10-25T14:24:21.324Z,20.92
2022-10-25T14:26:50.139Z,20.90
2022-10-25T14:29:19.862Z,20.90
2022-10-25T14:31:47.083Z,20.90
2022-10-25T14:34:21.809Z,20.90
2022-10-25T14:36:50.766Z,20.89
2022-10-25T14:39:19.883Z,20.88
2022-10-25T14:41:51.548Z,20.90
2022-10-25T14:44:29.530Z,20.91
2022-10-25T14:46:57.590Z,20.91
2022-10-25T14:49:25.612Z,20.92
2022-10-25T14:51:59.537Z,20.92
2022-10-25T14:54:32.606Z,20.91
2022-10-25T14:57:01.708Z,20.88
2022-10-25T14:59:50.113Z,20.86
2022-10-25T15:02:34.315Z,20.81
2022-10-25T15:05:02.354Z,20.79
2022-10-25T15:07:36.205Z,20.78
2022-10-25T15:12:36.233Z,20.77
2022-10-25T15:15:22.183Z,20.76
2022-10-25T15:17:52.772Z,20.74
2022-10-25T15:20:19.877Z,20.74
2022-10-25T15:22:48.961Z,20.73
2022-10-25T15:25:28.026Z,20.72
2022-10-25T15:27:55.182Z,20.70
2022-10-25T15:30:37.675Z,20.68
2022-10-25T15:33:05.986Z,20.66
2022-10-25T15:35:39.752Z,20.63
2022-10-25T15:38:09.120Z,20.61
2022-10-25T15:40:36.880Z,20.60
2022-10-25T15:43:04.042Z,20.56
2022-10-25T15:45:34.100Z,20.55
2022-10-25T15:48:03.228Z,20.53
2022-10-25T15:50:30.363Z,20.52
2022-10-25T15:52:58.318Z,20.50
2022-10-25T15:55:32.988Z,20.47
2022-10-25T15:58:05.859Z,20.42
2022-10-25T16:00:35.376Z,20.39
2022-10-25T16:03:03.110Z,20.38
2022-10-25T16:05:32.096Z,20.33
2022-10-25T16:07:59.720Z,20.33
2022-10-25T16:10:27.589Z,20.31
2022-10-25T16:12:59.509Z,20.30
2022-10-25T16:15:27.041Z,20.28
2022-10-25T16:17:54.189Z,20.26
2022-10-25T16:20:22.642Z,20.25
2022-10-25T16:22:50.130Z,20.22
2022-10-25T16:25:18.004Z,20.18
2022-10-25T16:27:46.452Z,20.14
2022-10-25T16:30:18.541Z,20.12
2022-10-25T16:32:46.234Z,20.08
2022-10-25T16:35:14.272Z,20.08
2022-10-25T16:37:44.524Z,20.06
2022-10-25T16:40:15.477Z,20.00
2022-10-25T16:42:46.494Z,19.95
2022-10-25T16:45:23.085Z,19.92
2022-10-25T16:47:50.322Z,19.87
2022-10-25T16:50:23.086Z,19.85
2022-10-25T16:52:50.900Z,19.84
2022-10-25T16:55:18.837Z,19.83
2022-10-25T16:57:46.332Z,19.86
2022-10-25T17:00:14.470Z,19.78
2022-10-25T17:02:41.535Z,19.77
2022-10-25T17:05:13.463Z,19.78
2022-10-25T17:07:43.160Z,19.73
2022-10-25T17:10:11.111Z,19.73
2022-10-25T17:12:49.295Z,19.83
2022-10-25T17:15:17.234Z,19.79
2022-10-25T17:17:45.867Z,19.80
2022-10-25T17:20:14.399Z,19.94
2022-10-25T17:22:42.254Z,19.91
2022-10-25T17:25:09.661Z,19.91
2022-10-25T17:27:39.700Z,19.88
2022-10-25T17:30:07.956Z,19.90
2022-10-25T17:32:35.232Z,19.82
2022-10-25T17:35:02.519Z,19.76
2022-10-25T17:37:29.827Z,19.72
2022-10-25T17:39:56.953Z,19.65
2022-10-25T17:42:23.992Z,19.58
2022-10-25T17:44:51.197Z,19.53
2022-10-25T17:47:18.352Z,19.51
2022-10-25T17:49:45.462Z,19.48
2022-10-25T17:52:12.585Z,19.47
2022-10-25T17:54:39.809Z,19.43
2022-10-25T17:57:07.001Z,19.40
2022-10-25T17:59:35.663Z,19.33
2022-10-25T18:02:02.992Z,19.31
2022-10-25T18:04:40.784Z,19.30
2022-10-25T18:07:15.226Z,19.28
2022-10-25T18:09:42.394Z,19.23
2022-10-25T18:12:09.674Z,19.20
2022-10-25T18:14:36.887Z,19.22
2022-10-25T18:17:04.071Z,19.21
2022-10-25T18:19:31.198Z,19.17
2022-10-25T18:22:00.719Z,19.12
2022-10-25T18:24:29.201Z,19.10
2022-10-25T18:26:56.851Z,19.07
2022-10-25T18:29:24.065Z,19.06
2022-10-25T18:31:51.476Z,19.09
2022-10-25T18:34:19.519Z,19.06
2022-10-25T18:36:46.712Z,19.02
2022-10-25T18:39:13.906Z,19.03
2022-10-25T18:41:42.435Z,19.03
2022-10-25T18:44:14.384Z,19.04
2022-10-25T18:46:42.810Z,18.97
2022-10-25T18:49:12.321Z,18.90
2022-10-25T18:51:40.623Z,18.85
2022-10-25T18:54:11.787Z,18.62
2022-10-25T18:56:38.942Z,18.53
2022-10-25T18:59:06.121Z,18.53
2022-10-25T19:01:33.650Z,18.53
2022-10-25T19:04:01.821Z,18.54
2022-10-25T19:06:29.598Z,18.55
2022-10-25T19:08:56.917Z,18.59
2022-10-25T19:11:23.989Z,18.58
2022-10-25T19:13:57.232Z,18.55
2022-10-25T19:16:24.432Z,18.52
2022-10-25T19:18:51.535Z,18.51
2022-10-25T19:21:18.908Z,18.50
2022-10-25T19:23:46.605Z,18.54
2022-10-25T19:26:16.467Z,18.52
2022-10-25T19:28:43.640Z,18.50
2022-10-25T19:31:20.177Z,18.45
2022-10-25T19:33:48.204Z,18.43
2022-10-25T19:36:15.638Z,18.43
2022-10-25T19:38:45.046Z,18.41
2022-10-25T19:41:14.243Z,18.36
2022-10-25T19:43:41.485Z,18.33
2022-10-25T19:46:08.781Z,18.33
2022-10-25T19:48:36.339Z,18.33
2022-10-25T19:51:08.808Z,18.28
2022-10-25T19:53:36.377Z,18.28
2022-10-25T19:56:08.532Z,18.23
2022-10-25T19:58:36.377Z,18.20
2022-10-25T20:01:08.276Z,18.16
2022-10-25T20:03:36.008Z,18.20
2022-10-25T20:06:07.836Z,18.18
2022-10-25T20:08:35.552Z,18.23
2022-10-25T20:11:02.804Z,18.18
2022-10-25T20:13:30.429Z,18.16
2022-10-25T20:15:57.983Z,18.10
2022-10-25T20:18:26.484Z,18.02
2022-10-25T20:20:57.272Z,18.02
2022-10-25T20:23:24.384Z,18.05
2022-10-25T20:25:51.479Z,18.00
2022-10-25T20:28:18.651Z,18.00
2022-10-25T20:30:45.800Z,18.01
2022-10-25T20:33:12.990Z,17.98
2022-10-25T20:35:41.427Z,17.97
2022-10-25T20:38:12.485Z,17.99
2022-10-25T20:40:40.184Z,17.97
2022-10-25T20:43:07.300Z,17.91
2022-10-25T20:45:34.485Z,17.81
2022-10-25T20:48:01.757Z,17.81
2022-10-25T20:50:29.699Z,17.78
2022-10-25T20:53:12.348Z,17.75
2022-10-25T20:55:39.500Z,17.69
2022-10-25T20:58:07.066Z,17.67
2022-10-25T21:00:34.165Z,17.65
2022-10-25T21:03:01.336Z,17.61
2022-10-25T21:05:28.552Z,17.60
2022-10-25T21:07:55.660Z,17.57
2022-10-25T21:10:22.984Z,17.57
2022-10-25T21:12:50.083Z,17.60
2022-10-25T21:15:17.235Z,17.63
2022-10-25T21:17:48.293Z,17.59
2022-10-25T21:20:15.714Z,17.55
2022-10-25T21:22:42.863Z,17.53
2022-10-25T21:25:10.010Z,17.53
2022-10-25T21:27:37.280Z,17.52
2022-10-25T21:30:04.607Z,17.49
2022-10-25T21:32:31.702Z,17.46
2022-10-25T21:34:58.758Z,17.50
2022-10-25T21:37:25.969Z,17.50
2022-10-25T21:39:53.101Z,17.44
2022-10-25T21:42:20.437Z,17.39
2022-10-25T21:44:47.499Z,17.17
2022-10-25T21:47:14.613Z,16.94
2022-10-25T21:49:41.729Z,16.81
2022-10-25T21:52:08.924Z,16.81
2022-10-25T21:54:36.007Z,16.94
2022-10-25T21:57:03.120Z,17.01
2022-10-25T21:59:30.336Z,17.08
2022-10-25T22:01:57.639Z,17.10
2022-10-25T22:04:25.248Z,17.06
2022-10-25T22:06:52.480Z,16.99
2022-10-25T22:09:19.974Z,17.02
2022-10-25T22:11:49.780Z,17.10
2022-10-25T22:14:17.331Z,17.17
2022-10-25T22:16:44.804Z,17.19
2022-10-25T22:19:14.222Z,17.15
2022-10-25T22:21:41.793Z,17.20
2022-10-25T22:24:09.913Z,17.23
2022-10-25T22:26:37.918Z,17.25
2022-10-25T22:29:05.606Z,17.08
2022-10-25T22:31:33.086Z,16.97
2022-10-25T22:34:01.768Z,16.95
2022-10-25T22:36:30.652Z,17.00
2022-10-25T22:38:57.979Z,17.09
2022-10-25T22:41:26.452Z,17.22
2022-10-25T22:43:53.981Z,17.26
2022-10-25T22:46:25.654Z,17.22
2022-10-25T22:48:53.776Z,17.22
2022-10-25T22:51:21.649Z,17.24
2022-10-25T22:53:48.878Z,17.23
2022-10-25T22:56:17.186Z,17.27
2022-10-25T22:58:48.389Z,17.26
2022-10-25T23:01:16.960Z,17.26
2022-10-25T23:03:45.382Z,17.25
2022-10-25T23:06:13.984Z,17.29
2022-10-25T23:08:41.386Z,17.28
2022-10-25T23:11:11.600Z,17.19
2022-10-25T23:13:39.233Z,17.04
2022-10-25T23:16:06.581Z,17.10
2022-10-25T23:18:34.172Z,17.15
2022-10-25T23:21:02.239Z,17.12
2022-10-25T23:23:32.621Z,16.96
2022-10-25T23:26:00.548Z,16.98
2022-10-25T23:28:30.183Z,17.06
2022-10-25T23:31:02.549Z,17.04
2022-10-25T23:33:29.709Z,17.08
2022-10-25T23:36:00.527Z,17.12
2022-10-25T23:38:28.564Z,17.10
2022-10-25T23:40:55.697Z,17.13
2022-10-25T23:43:22.809Z,17.20
2022-10-25T23:45:49.924Z,17.06
2022-10-25T23:48:17.039Z,17.01
2022-10-25T23:50:44.215Z,17.03
2022-10-25T23:53:11.345Z,17.15
2022-10-25T23:55:39.003Z,17.22
2022-10-25T23:58:06.161Z,17.16
